Terminal Aerodrome Forecast
Issued by NWS Nashville, TN

Home | Current Version | Previous Version | Text Only | Print | Product List | Glossary On
Versions: 1 2 3 4 5 6 7 8 9 10 11 12 13 14 15 16 17 18
000
FTUS44 KOHX 291133
TAFBNA
TAF
KBNA 291133Z 2912/3012 00000KT 5SM BR FEW150
     FM291230 27006KT P6SM FEW040 SCT150
     FM300000 35003KT P6SM SCT150
     FM301100 00000KT 5SM BR SCT150=

USA.gov is the U.S. government's official web portal to all federal, state and local government web resources and services.